createdAt,value
2023-04-12T00:00:11.223Z,2.10
2023-04-12T00:02:40.494Z,1.92
2023-04-12T00:05:11.255Z,1.75
2023-04-12T00:07:39.617Z,1.80
2023-04-12T00:10:09.471Z,2.10
2023-04-12T00:12:37.807Z,2.42
2023-04-12T00:15:08.104Z,2.17
2023-04-12T00:17:36.704Z,1.80
2023-04-12T00:20:11.747Z,2.08
2023-04-12T00:22:43.167Z,1.73
2023-04-12T00:27:39.631Z,1.65
2023-04-12T00:30:08.596Z,2.10
2023-04-12T00:32:36.991Z,2.17
2023-04-12T00:35:05.716Z,1.92
2023-04-12T00:37:34.155Z,1.45
2023-04-12T00:40:03.138Z,1.70
2023-04-12T00:42:31.440Z,1.60
2023-04-12T00:45:01.468Z,1.77
2023-04-12T00:47:29.770Z,1.60
2023-04-12T00:49:58.928Z,1.70
2023-04-12T00:52:34.162Z,2.53
2023-04-12T00:55:05.442Z,1.85
2023-04-12T00:57:39.851Z,1.73
2023-04-12T01:00:12.346Z,1.67
2023-04-12T01:02:51.149Z,1.88
2023-04-12T01:05:23.471Z,2.58
2023-04-12T01:08:21.598Z,2.57
2023-04-12T01:11:12.199Z,1.60
2023-04-12T01:14:15.034Z,2.70
2023-04-12T01:16:55.101Z,2.00
2023-04-12T01:19:57.696Z,2.45
2023-04-12T01:23:26.303Z,2.03
2023-04-12T01:26:33.551Z,2.47
2023-04-12T01:29:09.798Z,2.17
2023-04-12T01:31:42.006Z,2.63
2023-04-12T01:34:12.323Z,1.90
2023-04-12T01:36:42.044Z,1.83
2023-04-12T01:39:10.472Z,1.77
2023-04-12T01:41:45.361Z,2.45
2023-04-12T01:44:15.671Z,1.95
2023-04-12T01:46:48.206Z,2.00
2023-04-12T01:49:16.774Z,2.05
2023-04-12T01:52:12.652Z,2.13
2023-04-12T01:54:43.552Z,1.85
2023-04-12T01:57:12.047Z,1.67
2023-04-12T01:59:44.714Z,2.67
2023-04-12T02:02:13.973Z,2.13
2023-04-12T02:04:43.438Z,2.25
2023-04-12T02:07:13.582Z,2.50
2023-04-12T02:09:41.933Z,2.08
2023-04-12T02:12:10.175Z,2.15
2023-04-12T02:14:38.588Z,1.88
2023-04-12T02:17:08.772Z,2.47
2023-04-12T02:19:38.455Z,1.80
2023-04-12T02:22:08.264Z,2.35
2023-04-12T02:24:36.831Z,2.25
2023-04-12T02:27:05.494Z,1.92
2023-04-12T02:29:33.761Z,1.92
2023-04-12T02:32:02.079Z,1.98
2023-04-12T02:34:34.315Z,3.13
2023-04-12T02:37:13.685Z,2.00
2023-04-12T02:39:41.910Z,1.75
2023-04-12T02:42:11.272Z,2.20
2023-04-12T02:44:41.942Z,1.90
2023-04-12T02:47:14.744Z,2.13
2023-04-12T02:49:47.728Z,1.98
2023-04-12T02:52:18.557Z,1.88
2023-04-12T02:55:06.739Z,1.38
2023-04-12T02:57:35.225Z,2.65
2023-04-12T03:00:12.261Z,1.65
2023-04-12T03:02:44.733Z,1.80
2023-04-12T03:05:20.527Z,2.67
2023-04-12T03:07:49.218Z,1.83
2023-04-12T03:10:21.786Z,1.75
2023-04-12T03:12:58.079Z,1.52
2023-04-12T03:15:34.013Z,1.25
2023-04-12T03:18:03.073Z,1.40
2023-04-12T03:20:39.010Z,1.38
2023-04-12T03:23:11.338Z,2.00
2023-04-12T03:25:44.876Z,2.05
2023-04-12T03:28:30.622Z,1.38
2023-04-12T03:31:00.554Z,1.83
2023-04-12T03:33:39.170Z,1.30
2023-04-12T03:36:10.412Z,1.40
2023-04-12T03:38:38.740Z,1.70
2023-04-12T03:41:10.915Z,1.52
2023-04-12T03:43:40.645Z,1.70
2023-04-12T03:46:17.987Z,1.70
2023-04-12T03:48:52.104Z,1.60
2023-04-12T03:51:26.616Z,1.35
2023-04-12T03:54:02.642Z,1.15
2023-04-12T03:56:35.584Z,1.75
2023-04-12T03:59:08.677Z,1.90
2023-04-12T04:01:38.989Z,1.60
2023-04-12T04:04:08.023Z,1.67
2023-04-12T04:06:36.533Z,2.08
2023-04-12T04:09:05.598Z,1.60
2023-04-12T04:11:37.737Z,1.27
2023-04-12T04:14:08.889Z,1.52
2023-04-12T04:16:37.582Z,1.48
2023-04-12T04:19:08.189Z,1.50
2023-04-12T04:21:36.581Z,2.38
2023-04-12T04:24:06.946Z,1.40
2023-04-12T04:26:39.673Z,1.42
2023-04-12T04:29:23.687Z,1.50
2023-04-12T04:31:53.127Z,1.58
2023-04-12T04:34:23.175Z,2.10
2023-04-12T04:36:54.072Z,1.52
2023-04-12T04:39:27.380Z,1.27
2023-04-12T04:41:57.473Z,1.40
2023-04-12T04:44:48.315Z,1.90
2023-04-12T04:47:17.695Z,1.50
2023-04-12T04:49:48.098Z,1.60
2023-04-12T04:52:24.641Z,1.30
2023-04-12T04:54:57.662Z,1.80
2023-04-12T04:57:28.302Z,1.67
2023-04-12T04:59:58.172Z,1.65
2023-04-12T05:02:26.672Z,1.33
2023-04-12T05:04:56.419Z,1.67
2023-04-12T05:07:30.510Z,1.52
2023-04-12T05:09:59.872Z,1.60
2023-04-12T05:12:29.350Z,1.48
2023-04-12T05:15:11.200Z,1.27
2023-04-12T05:17:40.832Z,1.42
2023-04-12T05:20:13.051Z,1.48
2023-04-12T05:22:41.437Z,2.08
2023-04-12T05:25:10.596Z,1.45
2023-04-12T05:27:47.347Z,1.65
2023-04-12T05:30:18.628Z,2.35
2023-04-12T05:32:47.515Z,1.70
2023-04-12T05:37:49.087Z,1.58
2023-04-12T05:40:17.295Z,1.85
2023-04-12T05:42:45.714Z,1.67
2023-04-12T05:45:14.078Z,1.52
2023-04-12T05:47:45.027Z,1.48
2023-04-12T05:50:13.388Z,1.65
2023-04-12T05:52:42.308Z,1.52
2023-04-12T05:55:10.842Z,1.40
2023-04-12T05:57:44.061Z,1.50
2023-04-12T06:00:17.045Z,1.38
2023-04-12T06:02:48.205Z,1.90
2023-04-12T06:05:18.366Z,1.70
2023-04-12T06:07:48.081Z,1.58
2023-04-12T06:10:17.250Z,1.50
2023-04-12T06:12:48.603Z,1.30
2023-04-12T06:15:17.084Z,1.63
2023-04-12T06:17:45.935Z,1.65
2023-04-12T06:20:14.708Z,1.65
2023-04-12T06:22:43.081Z,1.25
2023-04-12T06:25:12.495Z,1.23
2023-04-12T06:27:40.822Z,1.27
2023-04-12T06:30:09.786Z,1.20
2023-04-12T06:32:38.654Z,1.48
2023-04-12T06:35:08.172Z,1.35
2023-04-12T06:37:36.552Z,1.30
2023-04-12T06:40:05.496Z,1.90
2023-04-12T06:42:33.870Z,1.08
2023-04-12T06:45:02.202Z,1.33
2023-04-12T06:47:32.326Z,1.40
2023-04-12T06:50:00.607Z,1.27
2023-04-12T06:52:29.205Z,1.65
2023-04-12T06:54:57.479Z,1.55
2023-04-12T06:57:26.546Z,1.50
2023-04-12T06:59:54.966Z,1.20
2023-04-12T07:02:25.454Z,1.13
2023-04-12T07:04:54.559Z,1.15
2023-04-12T07:07:22.921Z,1.20
2023-04-12T07:09:52.303Z,1.20
2023-04-12T07:12:21.063Z,1.40
2023-04-12T07:14:49.455Z,1.17
2023-04-12T07:17:17.693Z,1.35
2023-04-12T07:19:52.113Z,1.67
2023-04-12T07:22:21.470Z,1.45
2023-04-12T07:24:50.704Z,1.45
2023-04-12T07:27:18.912Z,1.20
2023-04-12T07:29:47.127Z,1.13
2023-04-12T07:32:15.428Z,1.13
2023-04-12T07:34:43.798Z,1.02
2023-04-12T07:37:13.050Z,1.40
2023-04-12T07:39:41.600Z,1.60
2023-04-12T07:42:09.981Z,1.35
2023-04-12T07:44:38.960Z,1.95
2023-04-12T07:47:09.397Z,1.20
2023-04-12T07:49:37.811Z,1.47
2023-04-12T07:52:06.169Z,1.33
2023-04-12T07:54:34.420Z,1.30
2023-04-12T07:57:03.881Z,1.50
2023-04-12T07:59:37.330Z,1.48
2023-04-12T08:02:11.213Z,1.40
2023-04-12T08:04:41.830Z,1.60
2023-04-12T08:07:10.166Z,1.33
2023-04-12T08:09:38.371Z,1.35
2023-04-12T08:12:08.185Z,1.50
2023-04-12T08:14:38.552Z,1.38
2023-04-12T08:17:08.023Z,1.38
2023-04-12T08:19:37.004Z,1.58
2023-04-12T08:22:08.237Z,1.60
2023-04-12T08:27:30.628Z,1.45
2023-04-12T08:29:58.823Z,1.50
2023-04-12T08:32:27.150Z,1.52
2023-04-12T08:34:55.918Z,1.40
2023-04-12T08:37:24.238Z,1.35
2023-04-12T08:39:52.503Z,1.83
2023-04-12T08:42:23.255Z,1.27
2023-04-12T08:44:53.261Z,1.20
2023-04-12T08:47:21.890Z,1.30
2023-04-12T08:49:50.329Z,1.73
2023-04-12T08:52:43.569Z,1.42
2023-04-12T08:55:12.917Z,1.17
2023-04-12T08:57:46.677Z,1.20
2023-04-12T09:00:34.178Z,1.40
2023-04-12T09:03:07.342Z,1.40
2023-04-12T09:06:09.874Z,1.10
2023-04-12T09:08:50.949Z,1.20
2023-04-12T09:11:28.661Z,0.93
2023-04-12T09:13:59.768Z,1.20
2023-04-12T09:16:38.749Z,1.45
2023-04-12T09:19:07.755Z,1.20
2023-04-12T09:21:37.244Z,1.15
2023-04-12T09:24:30.383Z,1.30
2023-04-12T09:27:06.271Z,1.77
2023-04-12T09:29:35.726Z,1.05
2023-04-12T09:32:06.856Z,1.40
2023-04-12T09:37:16.162Z,1.27
2023-04-12T09:39:44.575Z,1.20
2023-04-12T09:42:29.928Z,1.33
2023-04-12T09:45:28.030Z,1.10
2023-04-12T09:47:58.834Z,1.20
2023-04-12T09:50:59.091Z,1.02
2023-04-12T09:53:27.515Z,1.10
2023-04-12T09:55:56.943Z,1.10
2023-04-12T09:58:26.313Z,1.08
2023-04-12T10:01:21.739Z,1.33
2023-04-12T10:03:53.904Z,0.95
2023-04-12T10:06:22.858Z,1.30
2023-04-12T10:08:56.441Z,1.15
2023-04-12T10:11:50.531Z,1.05
2023-04-12T10:14:20.452Z,1.15
2023-04-12T10:16:49.930Z,1.10
2023-04-12T10:19:30.556Z,1.02
2023-04-12T10:22:23.397Z,1.20
2023-04-12T10:24:53.897Z,1.13
2023-04-12T10:27:27.286Z,1.42
2023-04-12T10:30:24.300Z,0.90
2023-04-12T10:33:24.927Z,1.88
2023-04-12T10:36:08.798Z,1.13
2023-04-12T10:38:47.824Z,1.30
2023-04-12T10:41:22.794Z,1.05
2023-04-12T10:43:51.969Z,1.20
2023-04-12T10:46:40.779Z,1.30
2023-04-12T10:49:13.799Z,1.05
2023-04-12T10:52:00.879Z,1.30
2023-04-12T10:54:36.557Z,1.20
2023-04-12T10:57:07.081Z,1.15
2023-04-12T10:59:55.545Z,1.38
2023-04-12T11:02:24.216Z,1.30
2023-04-12T11:05:24.192Z,1.30
2023-04-12T11:08:05.656Z,1.58
2023-04-12T11:11:20.086Z,1.05
2023-04-12T11:13:48.489Z,1.10
2023-04-12T11:16:16.942Z,1.10
2023-04-12T11:18:47.420Z,1.65
2023-04-12T11:21:16.113Z,1.38
2023-04-12T11:23:44.524Z,1.48
2023-04-12T11:26:12.857Z,1.40
2023-04-12T11:28:41.199Z,1.60
2023-04-12T11:31:09.692Z,1.60
2023-04-12T11:33:40.073Z,1.05
2023-04-12T11:36:14.360Z,1.52
2023-04-12T11:38:47.024Z,1.23
2023-04-12T11:41:16.854Z,1.40
2023-04-12T11:43:49.506Z,1.15
2023-04-12T11:46:21.358Z,1.10
2023-04-12T11:48:53.194Z,1.17
2023-04-12T11:51:33.742Z,1.02
2023-04-12T11:54:08.978Z,1.00
2023-04-12T11:56:37.835Z,0.95
2023-04-12T11:59:08.400Z,1.08
2023-04-12T12:01:37.756Z,1.20
2023-04-12T12:04:07.340Z,1.25
2023-04-12T12:06:36.446Z,1.35
2023-04-12T12:09:06.426Z,1.10
2023-04-12T12:11:34.948Z,1.17
2023-04-12T12:14:03.422Z,1.38
2023-04-12T12:16:31.931Z,1.27
2023-04-12T12:19:05.462Z,1.40
2023-04-12T12:21:37.988Z,1.20
2023-04-12T12:24:06.443Z,1.35
2023-04-12T12:26:37.167Z,1.30
2023-04-12T12:29:19.415Z,1.40
2023-04-12T12:31:49.216Z,1.35
2023-04-12T12:34:19.476Z,1.50
2023-04-12T12:36:58.025Z,1.70
2023-04-12T12:39:28.739Z,1.40
2023-04-12T12:42:00.143Z,1.55
2023-04-12T12:44:29.632Z,1.40
2023-04-12T12:47:10.187Z,1.40
2023-04-12T12:49:43.490Z,1.42
2023-04-12T12:52:11.902Z,1.50
2023-04-12T12:54:42.396Z,1.02
2023-04-12T12:57:10.747Z,1.30
2023-04-12T12:59:39.013Z,1.23
2023-04-12T13:02:08.672Z,1.83
2023-04-12T13:04:38.247Z,1.27
2023-04-12T13:07:06.731Z,1.30
2023-04-12T13:09:35.013Z,1.27
2023-04-12T13:12:03.528Z,1.10
2023-04-12T13:14:36.553Z,1.00
2023-04-12T13:17:05.685Z,1.00
2023-04-12T13:19:37.011Z,1.10
2023-04-12T13:22:07.227Z,0.85
2023-04-12T13:24:38.772Z,1.10
2023-04-12T13:27:08.649Z,0.80
2023-04-12T13:29:38.971Z,1.10
2023-04-12T13:32:08.040Z,1.20
2023-04-12T13:34:37.641Z,1.00
2023-04-12T13:37:06.169Z,1.30
2023-04-12T13:39:35.239Z,1.40
2023-04-12T13:42:03.432Z,1.25
2023-04-12T13:44:31.676Z,1.30
2023-04-12T13:46:59.897Z,1.25
2023-04-12T13:49:28.285Z,1.20
2023-04-12T13:51:57.111Z,1.05
2023-04-12T13:54:25.975Z,1.20
2023-04-12T13:56:54.206Z,1.13
2023-04-12T13:59:22.424Z,0.93
2023-04-12T14:01:50.919Z,1.10
2023-04-12T14:04:19.244Z,0.90
2023-04-12T14:06:47.526Z,0.88
2023-04-12T14:09:30.838Z,1.10
2023-04-12T14:12:01.370Z,0.70
2023-04-12T14:14:29.749Z,0.70
2023-04-12T14:16:58.048Z,0.88
2023-04-12T14:19:28.180Z,0.70
2023-04-12T14:21:56.885Z,0.90
2023-04-12T14:24:26.475Z,0.95
2023-04-12T14:26:57.180Z,0.90
2023-04-12T14:31:54.300Z,1.10
2023-04-12T14:34:22.594Z,0.90
2023-04-12T14:36:50.821Z,1.25
2023-04-12T14:39:20.583Z,1.10
2023-04-12T14:41:48.800Z,1.40
2023-04-12T14:44:19.498Z,1.17
2023-04-12T14:46:51.686Z,1.25
2023-04-12T14:49:19.926Z,1.00
2023-04-12T14:51:48.162Z,1.10
2023-04-12T14:54:16.635Z,1.15
2023-04-12T14:56:52.459Z,1.10
2023-04-12T14:59:23.307Z,1.00
2023-04-12T15:01:52.411Z,0.80
2023-04-12T15:04:21.364Z,1.20
2023-04-12T15:06:49.709Z,1.13
2023-04-12T15:09:18.788Z,0.75
2023-04-12T15:11:52.082Z,0.80
2023-04-12T15:14:21.082Z,0.80
2023-04-12T15:16:49.469Z,0.75
2023-04-12T15:19:21.971Z,1.13
2023-04-12T15:21:52.334Z,1.10
2023-04-12T15:24:22.367Z,0.85
2023-04-12T15:26:54.261Z,1.00
2023-04-12T15:29:23.904Z,1.30
2023-04-12T15:31:52.162Z,0.90
2023-04-12T15:34:23.103Z,1.00
2023-04-12T15:39:20.421Z,0.77
2023-04-12T15:41:51.773Z,0.90
2023-04-12T15:44:20.093Z,1.45
2023-04-12T15:46:59.351Z,1.08
2023-04-12T15:49:36.109Z,1.23
2023-04-12T15:52:04.448Z,1.02
2023-04-12T15:54:32.750Z,0.88
2023-04-12T15:57:09.309Z,1.15
2023-04-12T15:59:39.821Z,1.00
2023-04-12T16:02:09.777Z,1.10
2023-04-12T16:04:39.080Z,1.08
2023-04-12T16:07:07.510Z,1.00
2023-04-12T16:09:38.501Z,1.27
2023-04-12T16:12:07.557Z,1.20
2023-04-12T16:14:36.908Z,1.10
2023-04-12T16:17:05.274Z,1.30
2023-04-12T16:19:33.549Z,1.25
2023-04-12T16:22:02.094Z,1.40
2023-04-12T16:24:30.370Z,1.15
2023-04-12T16:26:59.296Z,1.45
2023-04-12T16:29:27.490Z,1.10
2023-04-12T16:31:56.071Z,1.38
2023-04-12T16:34:24.417Z,1.10
2023-04-12T16:36:52.891Z,1.40
2023-04-12T16:39:21.401Z,1.85
2023-04-12T16:41:49.625Z,1.50
2023-04-12T16:44:18.770Z,1.30
2023-04-12T16:46:48.000Z,1.00
2023-04-12T16:49:19.020Z,1.50
2023-04-12T16:51:50.775Z,1.77
2023-04-12T16:54:20.228Z,1.40
2023-04-12T16:56:49.662Z,1.35
2023-04-12T16:59:20.639Z,1.63
2023-04-12T17:01:49.067Z,1.67
2023-04-12T17:04:18.501Z,1.60
2023-04-12T17:06:48.237Z,1.85
2023-04-12T17:09:19.694Z,1.98
2023-04-12T17:14:16.595Z,1.33
2023-04-12T17:16:47.089Z,2.00
2023-04-12T17:19:20.924Z,1.42
2023-04-12T17:21:51.303Z,2.03
2023-04-12T17:24:25.444Z,2.25
2023-04-12T17:26:56.621Z,1.98
2023-04-12T17:29:25.562Z,1.90
2023-04-12T17:31:55.116Z,2.15
2023-04-12T17:34:24.162Z,2.05
2023-04-12T17:36:55.138Z,2.55
2023-04-12T17:39:23.376Z,1.70
2023-04-12T17:41:53.157Z,1.80
2023-04-12T17:44:21.505Z,2.10
2023-04-12T17:46:49.809Z,2.10
2023-04-12T17:49:18.305Z,2.15
2023-04-12T17:51:46.934Z,2.30
2023-04-12T17:54:15.405Z,1.92
2023-04-12T17:56:44.857Z,2.03
2023-04-12T17:59:13.671Z,1.77
2023-04-12T18:01:42.151Z,1.95
2023-04-12T18:04:11.244Z,1.73
2023-04-12T18:06:39.974Z,1.67
2023-04-12T18:09:15.882Z,1.95
2023-04-12T18:11:45.503Z,2.20
2023-04-12T18:14:16.535Z,1.95
2023-04-12T18:16:45.073Z,2.05
2023-04-12T18:19:15.624Z,1.90
2023-04-12T18:21:48.096Z,1.98
2023-04-12T18:24:17.251Z,2.35
2023-04-12T18:26:46.106Z,2.30
2023-04-12T18:29:17.528Z,1.60
2023-04-12T18:31:46.078Z,5.03
2023-04-12T18:34:18.774Z,5.07
2023-04-12T18:36:47.599Z,5.72
2023-04-12T18:39:16.571Z,3.85
2023-04-12T18:41:47.874Z,3.00
2023-04-12T18:46:48.633Z,1.90
2023-04-12T18:49:17.205Z,2.97
2023-04-12T18:51:45.730Z,2.60
2023-04-12T18:54:22.915Z,2.67
2023-04-12T18:56:52.989Z,2.22
2023-04-12T18:59:22.044Z,2.22
2023-04-12T19:01:50.318Z,2.10
2023-04-12T19:04:18.613Z,2.75
2023-04-12T19:06:47.389Z,2.20
2023-04-12T19:09:15.923Z,2.35
2023-04-12T19:11:44.244Z,2.22
2023-04-12T19:14:12.952Z,2.67
2023-04-12T19:16:41.759Z,2.22
2023-04-12T19:19:17.304Z,2.65
2023-04-12T19:21:45.918Z,2.38
2023-04-12T19:24:14.394Z,2.67
2023-04-12T19:26:46.880Z,2.83
2023-04-12T19:29:15.786Z,2.63
2023-04-12T19:31:47.360Z,2.22
2023-04-12T19:34:17.752Z,2.85
2023-04-12T19:36:46.406Z,1.80
2023-04-12T19:39:15.568Z,3.03
2023-04-12T19:41:44.042Z,1.85
2023-04-12T19:44:14.117Z,1.73
2023-04-12T19:46:42.485Z,1.88
2023-04-12T19:49:10.815Z,2.95
2023-04-12T19:51:39.128Z,1.90
2023-04-12T19:54:09.940Z,3.20
2023-04-12T19:56:38.329Z,2.58
2023-04-12T19:59:06.771Z,2.17
2023-04-12T20:01:43.009Z,2.85
2023-04-12T20:04:12.790Z,2.58
2023-04-12T20:06:41.453Z,2.05
2023-04-12T20:09:13.215Z,2.63
2023-04-12T20:11:42.186Z,2.03
2023-04-12T20:14:10.451Z,2.05
2023-04-12T20:16:42.653Z,1.70
2023-04-12T20:19:11.957Z,2.38
2023-04-12T20:21:40.582Z,1.55
2023-04-12T20:24:09.034Z,1.95
2023-04-12T20:26:37.377Z,1.95
2023-04-12T20:29:06.845Z,1.55
2023-04-12T20:31:35.213Z,2.13
2023-04-12T20:34:06.261Z,2.13
2023-04-12T20:36:34.572Z,1.63
2023-04-12T20:39:29.485Z,1.80
2023-04-12T20:42:00.936Z,1.85
2023-04-12T20:46:58.374Z,1.48
2023-04-12T20:49:27.526Z,1.92
2023-04-12T20:52:21.129Z,1.77
2023-04-12T20:54:49.628Z,1.92
2023-04-12T20:57:19.634Z,1.70
2023-04-12T20:59:48.213Z,2.15
2023-04-12T21:02:17.991Z,2.15
2023-04-12T21:04:47.313Z,1.98
2023-04-12T21:07:16.085Z,2.15
2023-04-12T21:09:44.394Z,2.30
2023-04-12T21:12:12.622Z,1.63
2023-04-12T21:14:41.030Z,1.60
2023-04-12T21:17:09.320Z,1.40
2023-04-12T21:19:39.265Z,2.08
2023-04-12T21:22:08.354Z,2.33
2023-04-12T21:24:38.587Z,1.60
2023-04-12T21:27:08.397Z,1.40
2023-04-12T21:29:40.891Z,1.67
2023-04-12T21:32:11.970Z,1.35
2023-04-12T21:34:40.304Z,1.33
2023-04-12T21:37:08.975Z,1.58
2023-04-12T21:39:39.276Z,1.85
2023-04-12T21:42:07.722Z,1.40
2023-04-12T21:44:36.411Z,2.00
2023-04-12T21:47:04.660Z,1.60
2023-04-12T21:49:36.281Z,1.63
2023-04-12T21:52:04.910Z,1.40
2023-04-12T21:54:36.767Z,1.70
2023-04-12T21:57:06.133Z,1.40
2023-04-12T21:59:34.441Z,1.75
2023-04-12T22:02:03.159Z,1.60
2023-04-12T22:04:32.862Z,1.38
2023-04-12T22:07:05.346Z,1.40
2023-04-12T22:09:33.707Z,1.58
2023-04-12T22:12:02.143Z,1.83
2023-04-12T22:14:30.384Z,1.40
2023-04-12T22:16:59.042Z,1.67
2023-04-12T22:19:27.309Z,1.50
2023-04-12T22:21:55.777Z,2.25
2023-04-12T22:24:25.338Z,1.67
2023-04-12T22:26:57.277Z,1.52
2023-04-12T22:29:25.958Z,1.40
2023-04-12T22:31:55.494Z,2.13
2023-04-12T22:34:25.781Z,1.75
2023-04-12T22:36:58.679Z,1.60
2023-04-12T22:39:27.240Z,1.95
2023-04-12T22:41:57.146Z,1.63
2023-04-12T22:44:26.904Z,2.30
2023-04-12T22:46:56.687Z,1.83
2023-04-12T22:49:29.293Z,1.98
2023-04-12T22:51:58.069Z,2.00
2023-04-12T22:54:26.477Z,1.92
2023-04-12T22:56:54.737Z,1.95
2023-04-12T22:59:23.812Z,1.55
2023-04-12T23:01:52.176Z,2.40
2023-04-12T23:04:20.605Z,2.35
2023-04-12T23:06:50.635Z,1.60
2023-04-12T23:09:19.610Z,1.95
2023-04-12T23:11:47.947Z,2.17
2023-04-12T23:14:17.714Z,2.08
2023-04-12T23:16:46.387Z,2.13
2023-04-12T23:19:14.970Z,2.30
2023-04-12T23:21:44.207Z,1.98
2023-04-12T23:24:15.272Z,2.85
2023-04-12T23:26:45.317Z,2.58
2023-04-12T23:29:14.024Z,2.38
2023-04-12T23:31:42.821Z,2.00
2023-04-12T23:34:11.124Z,2.00
2023-04-12T23:36:39.433Z,1.90
2023-04-12T23:39:09.396Z,2.55
2023-04-12T23:42:03.186Z,2.15
2023-04-12T23:44:31.591Z,2.70
2023-04-12T23:46:59.894Z,2.30
2023-04-12T23:49:28.149Z,2.25
2023-04-12T23:51:58.493Z,2.15
2023-04-12T23:54:27.134Z,2.65
2023-04-12T23:56:55.916Z,2.30
2023-04-12T23:59:25.327Z,2.58
